sim
Sign-in with your pilot id or email,
or register
Callsign
Passwort

Schedule Details

Flight Number: DLH1867
Departure: Santiago de Compostela Airport (LEST) at 11:05
Arrival: Munich Airport (EDDM) at 13:40
Route: Lufthansa Passenger Schedule. Enter filed route here before submitting Pirep.

Weather Information
Getting current METAR information for LEST 181400Z 22003KT 190V250 4000 SHRA SCT030CB SCT040 19/15 Q1010 TEMPO 9999 NSW
Getting current METAR information for EDDM 181350Z 09011KT 050V120 CAVOK 19/10 Q1024 NOSIG

Schedule Frequency

Route Map